Rechercher aéroport 
image banner adimage banner adimage banner ad
image banner ad

KSNS - Salinas Muni

Situé à Salinas, United States

ICAO - SNS, IATA -

Données fournies par Airmate  

Information générale

Coordonnées: N36°39'46" W121°36'23"
Élévation : 84 feet MSL.
Variation magnétique : 16° East
Voir autres Aéroports à California

Données opérationnelles

Special qualification required
Heure actuelle UTC:
Heure actuelle locale:
Météo
METAR: KSNS 251453Z 02003KT 10SM OVC006 14/12 A3000 RMK AO2 SLP166 T01440117 53006
TAF: KSNS 251121Z 2512/2612 VRB05KT 6SM BR OVC005 FM251700 30006KT P6SM SCT010 FM252100 31013KT P6SM SCT200 FM260200 32008KT P6SM OVC008 FM260400 VRB05KT 6SM BR OVC005
Voir NOTAMs / SUP AIP / TFR affectant cet aéroport [VIEW]
Fréquences de communication: [VIEW]

Pistes:

Identifiant RWYQFULongueur (ft)Largeur (ft)SurfaceLDA (ft)
0897°6004150ASPH
26277°6004150ASPH
13148°4825150ASPH
31328°4825150ASPH

Coordonnées de l'aéroport

Adresse: Salinas United States

Autres services d'aviation

Écoles de pilotage

Aerodynamic Aviation - Salinas

Aerodynamic Aviation - Salinas

Vue satellite de KSNS